createdAt,value
2023-03-26T00:00:38.161Z,78.1843
2023-03-26T00:01:39.501Z,78.2051
2023-03-26T00:02:40.141Z,78.2287
2023-03-26T00:03:41.588Z,78.2509
2023-03-26T00:04:41.662Z,78.2755
2023-03-26T00:06:42.941Z,78.3346
2023-03-26T00:07:42.974Z,78.3643
2023-03-26T00:08:44.215Z,78.3994
2023-03-26T00:09:44.225Z,78.4313
2023-03-26T00:10:45.617Z,78.4647
2023-03-26T00:11:45.612Z,78.4923
2023-03-26T00:12:45.629Z,78.5129
2023-03-26T00:13:46.847Z,78.5309
2023-03-26T00:14:46.881Z,78.5468
2023-03-26T00:15:48.127Z,78.5586
2023-03-26T00:16:48.530Z,78.5679
2023-03-26T00:17:48.566Z,78.5704
2023-03-26T00:18:49.433Z,78.5779
2023-03-26T00:19:50.897Z,78.5748
2023-03-26T00:20:52.021Z,78.5722
2023-03-26T00:22:53.116Z,78.5469
2023-03-26T00:23:53.420Z,78.5267
2023-03-26T00:24:54.638Z,78.5062
2023-03-26T00:25:55.548Z,78.4887
2023-03-26T00:26:55.832Z,78.4691
2023-03-26T00:27:57.048Z,78.4523
2023-03-26T00:28:57.103Z,78.4407
2023-03-26T00:29:58.272Z,78.4262
2023-03-26T00:30:58.534Z,78.4154
2023-03-26T00:31:58.570Z,78.4071
2023-03-26T00:32:58.820Z,78.3924
2023-03-26T00:34:00.083Z,78.3771
2023-03-26T00:35:00.067Z,78.3664
2023-03-26T00:36:05.181Z,78.3575
2023-03-26T00:37:05.139Z,78.3587
2023-03-26T00:38:06.443Z,78.3481
2023-03-26T00:39:06.866Z,78.3383
2023-03-26T00:40:07.231Z,78.3235
2023-03-26T00:41:07.319Z,78.3115
2023-03-26T00:42:07.522Z,78.3062
2023-03-26T00:43:07.635Z,78.3044
2023-03-26T00:44:08.948Z,78.3085
2023-03-26T00:45:08.968Z,78.3183
2023-03-26T00:46:10.353Z,78.3361
2023-03-26T00:47:10.913Z,78.3527
2023-03-26T00:48:11.343Z,78.3666
2023-03-26T00:49:12.054Z,78.4003
2023-03-26T00:50:12.087Z,78.4087
2023-03-26T00:51:13.259Z,78.4197
2023-03-26T00:52:13.267Z,78.4344
2023-03-26T00:53:14.729Z,78.4446
2023-03-26T00:54:14.728Z,78.4529
2023-03-26T00:55:14.746Z,78.4548
2023-03-26T00:56:15.950Z,78.4540
2023-03-26T00:57:34.548Z,78.4468
2023-03-26T00:58:20.599Z,78.4598
2023-03-26T00:59:20.607Z,78.4248
2023-03-26T01:00:22.011Z,78.4051
2023-03-26T01:01:22.043Z,78.3953
2023-03-26T01:02:22.250Z,78.3900
2023-03-26T01:03:27.840Z,78.3914
2023-03-26T01:05:24.364Z,78.4261
2023-03-26T01:06:24.404Z,78.4223
2023-03-26T01:07:25.556Z,78.4195
2023-03-26T01:08:25.610Z,78.4182
2023-03-26T01:09:26.793Z,78.4153
2023-03-26T01:10:28.131Z,78.4166
2023-03-26T01:11:29.438Z,78.4149
2023-03-26T01:12:30.657Z,78.4086
2023-03-26T01:13:30.801Z,78.4053
2023-03-26T01:14:32.007Z,78.4027
2023-03-26T01:15:32.081Z,78.3990
2023-03-26T01:16:32.380Z,78.4031
2023-03-26T01:17:32.487Z,78.4093
2023-03-26T01:18:33.672Z,78.4184
2023-03-26T01:19:33.719Z,78.4335
2023-03-26T01:20:35.117Z,78.4555
2023-03-26T01:21:36.287Z,78.4867
2023-03-26T01:22:37.597Z,78.5180
2023-03-26T01:23:38.885Z,78.5456
2023-03-26T01:24:38.899Z,78.5776
2023-03-26T01:25:40.238Z,78.6096
2023-03-26T01:26:41.410Z,78.6401
2023-03-26T01:29:43.831Z,78.7385
2023-03-26T01:30:43.786Z,78.7750
2023-03-26T01:31:45.113Z,78.8038
2023-03-26T01:32:46.134Z,78.8350
2023-03-26T01:33:46.194Z,78.8637
2023-03-26T01:34:46.254Z,78.8906
2023-03-26T01:35:47.571Z,78.9325
2023-03-26T01:36:47.797Z,78.9657
2023-03-26T01:37:48.989Z,79.0034
2023-03-26T01:38:49.599Z,79.0389
2023-03-26T01:39:51.162Z,79.0708
2023-03-26T01:40:51.786Z,79.1023
2023-03-26T01:41:51.861Z,79.1288
2023-03-26T01:42:53.094Z,79.1517
2023-03-26T01:43:53.076Z,79.1693
2023-03-26T01:44:54.405Z,79.1753
2023-03-26T01:45:55.875Z,79.1753
2023-03-26T01:46:56.481Z,79.1761
2023-03-26T01:47:56.499Z,79.1670
2023-03-26T01:48:56.566Z,79.1506
2023-03-26T01:49:56.644Z,79.1332
2023-03-26T01:50:56.794Z,79.1191
2023-03-26T01:51:58.131Z,79.1005
2023-03-26T01:52:59.355Z,79.0771
2023-03-26T01:53:59.442Z,79.0543
2023-03-26T01:55:00.701Z,79.0215
2023-03-26T01:56:00.745Z,78.9966
2023-03-26T01:57:00.758Z,78.9742
2023-03-26T01:58:00.842Z,78.9544
2023-03-26T01:59:02.024Z,78.9310
2023-03-26T02:00:03.328Z,78.9137
2023-03-26T02:01:03.512Z,78.9014
2023-03-26T02:02:03.711Z,78.9090
2023-03-26T02:03:04.982Z,78.9177
2023-03-26T02:04:05.156Z,78.9275
2023-03-26T02:06:05.681Z,78.9925
2023-03-26T02:07:06.785Z,79.0414
2023-03-26T02:08:07.108Z,79.0859
2023-03-26T02:09:08.350Z,79.1189
2023-03-26T02:10:08.423Z,79.1312
2023-03-26T02:11:09.878Z,79.1234
2023-03-26T02:12:09.895Z,79.1138
2023-03-26T02:13:09.922Z,79.0907
2023-03-26T02:14:11.121Z,79.0678
2023-03-26T02:15:11.165Z,79.0403
2023-03-26T02:16:11.147Z,79.0029
2023-03-26T02:17:11.470Z,78.9536
2023-03-26T02:18:11.569Z,78.9031
2023-03-26T02:19:11.641Z,78.8593
2023-03-26T02:20:12.820Z,78.8320
2023-03-26T02:21:12.881Z,78.8147
2023-03-26T02:22:14.213Z,78.8163
2023-03-26T02:23:15.533Z,78.8330
2023-03-26T02:24:15.632Z,78.8600
2023-03-26T02:25:16.862Z,78.8834
2023-03-26T02:27:17.851Z,78.9117
2023-03-26T02:28:17.889Z,78.9183
2023-03-26T02:29:19.325Z,78.9298
2023-03-26T02:30:20.550Z,78.9398
2023-03-26T02:31:20.636Z,78.9418
2023-03-26T02:32:20.714Z,78.9407
2023-03-26T02:33:21.322Z,78.9244
2023-03-26T02:34:22.599Z,78.9056
2023-03-26T02:35:22.959Z,78.8812
2023-03-26T02:37:23.641Z,78.8548
2023-03-26T02:38:25.093Z,78.8437
2023-03-26T02:39:25.090Z,78.8305
2023-03-26T02:40:25.423Z,78.8223
2023-03-26T02:41:26.644Z,78.8167
2023-03-26T02:42:26.771Z,78.8085
2023-03-26T02:43:27.947Z,78.8030
2023-03-26T02:45:29.323Z,78.8006
2023-03-26T02:46:29.531Z,78.8023
2023-03-26T02:47:29.936Z,78.8048
2023-03-26T02:48:29.912Z,78.7981
2023-03-26T02:49:30.020Z,78.7902
2023-03-26T02:50:30.026Z,78.7767
2023-03-26T02:51:30.549Z,78.7680
2023-03-26T02:52:31.832Z,78.7445
2023-03-26T02:53:32.110Z,78.7182
2023-03-26T02:54:32.061Z,78.6978
2023-03-26T02:55:32.160Z,78.6779
2023-03-26T02:56:33.425Z,78.6607
2023-03-26T02:57:33.702Z,78.6487
2023-03-26T02:58:33.749Z,78.6466
2023-03-26T02:59:33.881Z,78.6374
2023-03-26T03:00:34.121Z,78.6266
2023-03-26T03:01:34.607Z,78.6143
2023-03-26T03:02:34.730Z,78.6063
2023-03-26T03:03:35.440Z,78.6016
2023-03-26T03:04:35.611Z,78.6027
2023-03-26T03:05:35.629Z,78.6060
2023-03-26T03:06:35.738Z,78.6107
2023-03-26T03:07:37.065Z,78.6177
2023-03-26T03:08:37.217Z,78.6221
2023-03-26T03:09:38.512Z,78.6262
2023-03-26T03:10:38.621Z,78.6280
2023-03-26T03:11:39.948Z,78.6270
2023-03-26T03:12:39.994Z,78.6285
2023-03-26T03:13:41.488Z,78.6315
2023-03-26T03:14:42.782Z,78.6355
2023-03-26T03:15:42.958Z,78.6392
2023-03-26T03:16:43.101Z,78.6448
2023-03-26T03:17:43.578Z,78.6526
2023-03-26T03:18:43.662Z,78.6580
2023-03-26T03:19:43.783Z,78.6635
2023-03-26T03:20:43.835Z,78.6740
2023-03-26T03:21:43.991Z,78.6833
2023-03-26T03:22:45.284Z,78.6924
2023-03-26T03:23:45.395Z,78.7013
2023-03-26T03:24:46.683Z,78.7055
2023-03-26T03:25:46.791Z,78.7115
2023-03-26T03:26:47.920Z,78.7194
2023-03-26T03:27:47.876Z,78.7262
2023-03-26T03:28:48.016Z,78.7295
2023-03-26T03:29:49.304Z,78.7369
2023-03-26T03:30:49.551Z,78.7485
2023-03-26T03:31:50.106Z,78.7656
2023-03-26T03:32:50.695Z,78.7796
2023-03-26T03:33:50.845Z,78.7952
2023-03-26T03:34:51.004Z,78.8115
2023-03-26T03:35:51.327Z,78.8316
2023-03-26T03:37:52.740Z,78.8757
2023-03-26T03:38:54.070Z,78.8932
2023-03-26T03:39:54.242Z,78.9166
2023-03-26T03:40:54.253Z,78.9427
2023-03-26T03:42:55.664Z,78.9768
2023-03-26T03:43:55.929Z,78.9972
2023-03-26T03:44:56.100Z,79.0148
2023-03-26T03:45:56.682Z,79.0316
2023-03-26T03:46:57.284Z,79.0479
2023-03-26T03:47:57.674Z,79.0622
2023-03-26T03:48:57.942Z,79.0807
2023-03-26T03:49:59.215Z,79.0933
2023-03-26T03:50:59.523Z,79.1086
2023-03-26T03:51:59.540Z,79.1245
2023-03-26T03:52:59.965Z,79.1311
2023-03-26T03:54:00.002Z,79.1450
2023-03-26T03:55:00.158Z,79.1527
2023-03-26T03:56:00.348Z,79.1592
2023-03-26T03:57:00.770Z,79.1599
2023-03-26T03:58:00.768Z,79.1609
2023-03-26T03:59:00.886Z,79.1603
2023-03-26T04:00:01.684Z,79.1657
2023-03-26T04:01:03.037Z,79.1675
2023-03-26T04:02:03.181Z,79.1611
2023-03-26T04:03:03.695Z,79.1571
2023-03-26T04:04:04.723Z,79.1659
2023-03-26T04:05:04.950Z,79.1658
2023-03-26T04:06:05.169Z,79.1621
2023-03-26T04:07:05.152Z,79.1644
2023-03-26T04:08:05.331Z,79.1707
2023-03-26T04:10:08.095Z,79.1747
2023-03-26T04:11:08.225Z,79.1805
2023-03-26T04:12:08.221Z,79.1865
2023-03-26T04:13:08.318Z,79.1903
2023-03-26T04:14:08.336Z,79.1923
2023-03-26T04:15:08.495Z,79.1999
2023-03-26T04:16:08.637Z,79.2080
2023-03-26T04:17:08.932Z,79.2191
2023-03-26T04:18:09.081Z,79.2240
2023-03-26T04:19:09.240Z,79.2271
2023-03-26T04:20:09.289Z,79.2342
2023-03-26T04:21:09.477Z,79.2378
2023-03-26T04:22:09.481Z,79.2390
2023-03-26T04:23:09.619Z,79.2406
2023-03-26T04:24:10.879Z,79.2414
2023-03-26T04:25:11.474Z,79.2432
2023-03-26T04:26:11.622Z,79.2498
2023-03-26T04:27:11.650Z,79.2515
2023-03-26T04:28:11.817Z,79.2598
2023-03-26T04:29:13.157Z,79.2645
2023-03-26T04:31:14.465Z,79.2760
2023-03-26T04:32:14.950Z,79.2864
2023-03-26T04:33:15.169Z,79.2867
2023-03-26T04:34:15.375Z,79.2845
2023-03-26T04:35:15.353Z,79.2786
2023-03-26T04:36:15.771Z,79.2764
2023-03-26T04:37:15.763Z,79.2808
2023-03-26T04:39:15.836Z,79.2864
2023-03-26T04:40:16.033Z,79.2856
2023-03-26T04:41:16.014Z,79.2813
2023-03-26T04:42:16.119Z,79.2811
2023-03-26T04:43:16.147Z,79.2847
2023-03-26T04:44:16.217Z,79.2923
2023-03-26T04:45:17.507Z,79.3015
2023-03-26T04:46:17.702Z,79.3092
2023-03-26T04:47:17.781Z,79.3142
2023-03-26T04:48:18.444Z,79.3142
2023-03-26T04:49:19.926Z,79.3104
2023-03-26T04:50:21.213Z,79.3131
2023-03-26T04:51:21.428Z,79.3167
2023-03-26T04:52:21.446Z,79.3189
2023-03-26T04:53:22.598Z,79.3193
2023-03-26T04:54:24.094Z,79.3199
2023-03-26T04:55:25.430Z,79.3249
2023-03-26T04:56:25.581Z,79.3342
2023-03-26T04:57:25.731Z,79.3428
2023-03-26T04:58:25.856Z,79.3467
2023-03-26T04:59:25.858Z,79.3509
2023-03-26T05:00:26.023Z,79.3602
2023-03-26T05:01:26.036Z,79.3708
2023-03-26T05:02:26.350Z,79.3797
2023-03-26T05:03:27.002Z,79.3920
2023-03-26T05:04:27.618Z,79.4072
2023-03-26T05:05:27.682Z,79.4174
2023-03-26T05:06:28.525Z,79.4302
2023-03-26T05:07:28.520Z,79.4422
2023-03-26T05:08:28.733Z,79.4579
2023-03-26T05:09:28.709Z,79.4724
2023-03-26T05:10:28.771Z,79.4827
2023-03-26T05:11:29.563Z,79.4922
2023-03-26T05:12:29.697Z,79.5006
2023-03-26T05:13:29.750Z,79.5043
2023-03-26T05:14:30.054Z,79.5085
2023-03-26T05:15:31.582Z,79.5149
2023-03-26T05:16:31.944Z,79.5233
2023-03-26T05:17:32.381Z,79.5319
2023-03-26T05:18:32.537Z,79.5363
2023-03-26T05:19:32.687Z,79.5377
2023-03-26T05:20:32.697Z,79.5414
2023-03-26T05:21:32.834Z,79.5448
2023-03-26T05:23:34.146Z,79.5414
2023-03-26T05:24:34.166Z,79.5415
2023-03-26T05:25:34.353Z,79.5354
2023-03-26T05:26:34.315Z,79.5329
2023-03-26T05:27:34.431Z,79.5288
2023-03-26T05:28:35.722Z,79.5218
2023-03-26T05:29:35.830Z,79.5211
2023-03-26T05:30:36.182Z,79.5205
2023-03-26T05:31:36.613Z,79.5185
2023-03-26T05:32:36.783Z,79.5232
2023-03-26T05:33:36.856Z,79.5304
2023-03-26T05:34:37.162Z,79.5417
2023-03-26T05:35:37.460Z,79.5442
2023-03-26T05:36:37.733Z,79.5480
2023-03-26T05:37:38.010Z,79.5503
2023-03-26T05:38:38.462Z,79.5508
2023-03-26T05:39:38.626Z,79.5520
2023-03-26T05:40:39.067Z,79.5594
2023-03-26T05:41:39.323Z,79.5605
2023-03-26T05:42:39.430Z,79.5622
2023-03-26T05:43:39.702Z,79.5650
2023-03-26T05:44:39.892Z,79.5633
2023-03-26T05:45:40.184Z,79.5627
2023-03-26T05:46:40.487Z,79.5594
2023-03-26T05:47:41.106Z,79.5544
2023-03-26T05:48:41.663Z,79.5529
2023-03-26T05:49:41.744Z,79.5516
2023-03-26T05:50:41.988Z,79.5479
2023-03-26T05:52:42.510Z,79.5354
2023-03-26T05:53:42.583Z,79.5303
2023-03-26T05:55:44.085Z,79.5150
2023-03-26T05:56:44.884Z,79.5084
2023-03-26T05:57:45.185Z,79.4998
2023-03-26T05:58:45.379Z,79.4938
2023-03-26T05:59:45.424Z,79.4893
2023-03-26T06:00:45.682Z,79.4834
2023-03-26T06:01:46.269Z,79.4841
2023-03-26T06:02:46.899Z,79.4741
2023-03-26T06:04:48.173Z,79.4633
2023-03-26T06:05:48.629Z,79.4518
2023-03-26T06:06:48.677Z,79.4422
2023-03-26T06:07:48.967Z,79.4429
2023-03-26T06:08:49.044Z,79.4379
2023-03-26T06:09:50.425Z,79.4522
2023-03-26T06:10:51.071Z,79.4418
2023-03-26T06:11:52.068Z,79.4253
2023-03-26T06:12:52.134Z,79.4072
2023-03-26T06:14:53.640Z,79.3564
2023-03-26T06:15:53.942Z,79.3228
2023-03-26T06:16:54.090Z,79.3060
2023-03-26T06:17:54.296Z,79.2651
2023-03-26T06:18:59.555Z,79.2201
2023-03-26T06:19:59.813Z,79.1895
2023-03-26T06:21:00.301Z,79.1550
2023-03-26T06:22:00.515Z,79.1335
2023-03-26T06:23:00.583Z,79.1239
2023-03-26T06:24:00.809Z,79.1211
2023-03-26T06:25:01.068Z,79.1234
2023-03-26T06:26:01.441Z,79.1257
2023-03-26T06:28:01.626Z,79.1201
2023-03-26T06:29:01.670Z,79.1115
2023-03-26T06:30:01.939Z,79.1090
2023-03-26T06:32:16.179Z,79.1007
2023-03-26T06:33:04.441Z,79.1213
2023-03-26T06:34:04.595Z,79.1035
2023-03-26T06:35:04.724Z,79.1028
2023-03-26T06:36:05.169Z,79.0990
2023-03-26T06:37:05.492Z,79.0953
2023-03-26T06:38:05.614Z,79.0911
2023-03-26T06:39:09.782Z,79.0817
2023-03-26T06:40:09.890Z,79.0725
2023-03-26T06:41:10.575Z,79.0558
2023-03-26T06:42:10.910Z,79.0485
2023-03-26T06:44:12.004Z,79.0616
2023-03-26T06:45:12.112Z,79.0427
2023-03-26T06:46:12.519Z,79.0372
2023-03-26T06:47:12.630Z,79.0299
2023-03-26T06:48:13.063Z,79.0272
2023-03-26T06:50:13.286Z,79.0248
2023-03-26T06:51:13.542Z,79.0347
2023-03-26T06:52:13.736Z,79.0385
2023-03-26T06:53:13.861Z,79.0449
2023-03-26T06:54:14.169Z,79.0501
2023-03-26T06:55:14.247Z,79.0567
2023-03-26T06:56:15.220Z,79.0605
2023-03-26T06:57:15.858Z,79.0649
2023-03-26T06:58:15.975Z,79.0751
2023-03-26T06:59:16.249Z,79.0797
2023-03-26T07:00:16.387Z,79.0846
2023-03-26T07:02:16.670Z,79.1020
2023-03-26T07:03:17.203Z,79.1071
2023-03-26T07:04:18.402Z,79.1068
2023-03-26T07:05:18.887Z,79.1038
2023-03-26T07:06:18.981Z,79.1006
2023-03-26T07:07:19.274Z,79.0909
2023-03-26T07:08:19.941Z,79.0856
2023-03-26T07:09:20.167Z,79.0628
2023-03-26T07:10:20.273Z,79.0438
2023-03-26T07:11:21.138Z,79.0136
2023-03-26T07:12:21.411Z,78.9890
2023-03-26T07:13:21.453Z,78.9654
2023-03-26T07:14:22.561Z,78.9445
2023-03-26T07:17:23.490Z,79.0209
2023-03-26T07:18:23.935Z,79.0945
2023-03-26T07:19:24.024Z,79.1698
2023-03-26T07:20:24.445Z,79.2616
2023-03-26T07:21:24.921Z,79.3450
2023-03-26T07:22:25.153Z,79.4080
2023-03-26T07:23:25.554Z,79.4700
2023-03-26T07:24:25.846Z,79.5244
2023-03-26T07:25:26.000Z,79.5955
2023-03-26T07:26:26.212Z,79.6756
2023-03-26T07:27:26.342Z,79.7683
2023-03-26T07:28:26.752Z,79.8743
2023-03-26T07:29:27.621Z,79.9846
2023-03-26T07:30:27.705Z,80.0832
2023-03-26T07:31:28.064Z,80.1642
2023-03-26T07:32:28.764Z,80.2336
2023-03-26T07:33:29.061Z,80.2859
2023-03-26T07:34:29.237Z,80.3229
2023-03-26T07:35:29.644Z,80.3462
2023-03-26T07:36:29.738Z,80.3651
2023-03-26T07:37:30.023Z,80.3713
2023-03-26T07:38:30.103Z,80.3817
2023-03-26T07:39:31.304Z,80.3975
2023-03-26T07:40:31.597Z,80.4183
2023-03-26T07:41:32.247Z,80.4393
2023-03-26T07:42:32.414Z,80.4694
2023-03-26T07:43:32.636Z,80.5021
2023-03-26T07:44:34.590Z,80.5364
2023-03-26T07:45:33.335Z,80.5769
2023-03-26T07:46:33.709Z,80.5883
2023-03-26T07:47:34.141Z,80.5977
2023-03-26T07:50:35.677Z,80.6038
2023-03-26T07:51:36.363Z,80.6041
2023-03-26T07:52:36.512Z,80.5953
2023-03-26T07:53:36.764Z,80.5873
2023-03-26T07:54:36.924Z,80.5799
2023-03-26T07:55:37.186Z,80.5790
2023-03-26T07:56:37.373Z,80.5778
2023-03-26T07:57:38.369Z,80.5751
2023-03-26T07:58:38.475Z,80.5620
2023-03-26T07:59:38.812Z,80.5389
2023-03-26T08:00:38.944Z,80.5121
2023-03-26T08:01:39.167Z,80.4749
2023-03-26T08:02:39.352Z,80.4356
2023-03-26T08:03:40.436Z,80.3976
2023-03-26T08:04:41.494Z,80.3613
2023-03-26T08:05:42.302Z,80.3118
2023-03-26T08:06:42.549Z,80.2631
2023-03-26T08:07:43.522Z,80.2310
2023-03-26T08:08:43.805Z,80.2062
2023-03-26T08:09:44.107Z,80.1933
2023-03-26T08:10:44.211Z,80.1939
2023-03-26T08:11:44.977Z,80.2013
2023-03-26T08:12:45.222Z,80.2204
2023-03-26T08:13:45.471Z,80.2405
2023-03-26T08:14:45.703Z,80.2555
2023-03-26T08:15:46.203Z,80.2633
2023-03-26T08:18:47.060Z,80.2356
2023-03-26T08:19:47.502Z,80.2276
2023-03-26T08:20:47.717Z,80.2278
2023-03-26T08:21:48.089Z,80.2362
2023-03-26T08:22:48.232Z,80.2639
2023-03-26T08:23:51.963Z,80.2985
2023-03-26T08:25:51.195Z,80.3847
2023-03-26T08:26:51.640Z,80.4385
2023-03-26T08:28:52.074Z,80.5352
2023-03-26T08:29:52.287Z,80.5645
2023-03-26T08:30:53.241Z,80.6033
2023-03-26T08:31:53.242Z,80.6421
2023-03-26T08:32:53.696Z,80.6764
2023-03-26T08:33:53.908Z,80.7064
2023-03-26T08:34:54.322Z,80.7348
2023-03-26T08:35:55.075Z,80.7560
2023-03-26T08:36:55.558Z,80.7780
2023-03-26T08:37:55.756Z,80.7854
2023-03-26T08:38:56.111Z,80.7903
2023-03-26T08:39:56.362Z,80.7887
2023-03-26T08:40:57.372Z,80.7844
2023-03-26T08:41:57.881Z,80.7858
2023-03-26T08:42:58.190Z,80.7768
2023-03-26T08:43:58.548Z,80.7516
2023-03-26T08:44:58.958Z,80.7262
2023-03-26T08:46:59.526Z,80.5473
2023-03-26T08:47:59.990Z,80.3120
2023-03-26T08:49:00.166Z,80.0233
2023-03-26T08:50:00.860Z,79.7334
2023-03-26T08:51:01.728Z,79.4174
2023-03-26T08:52:02.078Z,79.0828
2023-03-26T08:53:02.255Z,78.7806
2023-03-26T08:54:02.567Z,78.4992
2023-03-26T08:55:02.932Z,78.2304
2023-03-26T08:56:03.303Z,77.9736
2023-03-26T08:57:03.712Z,77.7763
2023-03-26T08:58:04.818Z,77.6519
2023-03-26T09:00:05.915Z,77.5792
2023-03-26T09:01:07.041Z,77.6206
2023-03-26T09:02:07.672Z,77.6885
2023-03-26T09:03:08.399Z,77.7862
2023-03-26T09:04:08.817Z,77.9112
2023-03-26T09:05:09.062Z,78.0485
2023-03-26T09:06:09.268Z,78.2083
2023-03-26T09:07:09.561Z,78.3852
2023-03-26T09:08:09.730Z,78.5556
2023-03-26T09:09:18.766Z,78.7420
2023-03-26T09:10:11.662Z,78.9436
2023-03-26T09:11:12.567Z,79.0953
2023-03-26T09:12:12.919Z,79.2578
2023-03-26T09:13:13.389Z,79.4057
2023-03-26T09:15:14.020Z,79.6193
2023-03-26T09:16:14.596Z,79.7076
2023-03-26T09:17:15.073Z,79.7982
2023-03-26T09:18:15.573Z,79.8681
2023-03-26T09:19:15.788Z,79.9429
2023-03-26T09:21:16.809Z,80.0372
2023-03-26T09:22:17.114Z,80.0783
2023-03-26T09:23:17.328Z,80.1174
2023-03-26T09:24:17.715Z,80.1152
2023-03-26T09:25:17.956Z,79.9100
2023-03-26T09:26:18.357Z,79.5097
2023-03-26T09:27:18.523Z,78.9665
2023-03-26T09:28:18.838Z,78.3419
2023-03-26T09:29:18.975Z,77.7843
2023-03-26T09:30:20.014Z,77.3009
2023-03-26T09:31:20.356Z,76.9078
2023-03-26T09:32:21.103Z,76.6097
2023-03-26T09:33:21.476Z,76.3665
2023-03-26T09:34:21.801Z,76.1363
2023-03-26T09:35:21.946Z,76.0860
2023-03-26T09:36:22.630Z,76.1092
2023-03-26T09:37:22.840Z,76.1432
2023-03-26T09:38:23.654Z,76.1646
2023-03-26T09:39:24.025Z,76.2053
2023-03-26T09:40:24.127Z,76.2301
2023-03-26T09:42:25.077Z,76.0907
2023-03-26T09:43:25.402Z,75.9560
2023-03-26T09:44:25.700Z,75.8867
2023-03-26T09:45:25.996Z,75.8212
2023-03-26T09:46:26.471Z,75.7641
2023-03-26T09:47:27.028Z,75.7250
2023-03-26T09:48:27.404Z,75.7151
2023-03-26T09:49:27.810Z,75.7558
2023-03-26T09:50:28.029Z,75.7959
2023-03-26T09:51:28.445Z,75.7826
2023-03-26T09:52:28.668Z,75.7449
2023-03-26T09:53:29.076Z,75.6676
2023-03-26T09:54:29.325Z,75.4823
2023-03-26T09:55:29.804Z,75.2010
2023-03-26T09:56:30.029Z,74.8486
2023-03-26T09:57:30.588Z,74.5363
2023-03-26T09:58:31.181Z,74.3141
2023-03-26T09:59:31.366Z,74.1216
2023-03-26T10:01:32.468Z,73.6351
2023-03-26T10:02:46.672Z,73.3551
2023-03-26T10:03:37.428Z,73.0799
2023-03-26T10:04:38.083Z,72.8671
2023-03-26T10:05:38.851Z,72.6896
2023-03-26T10:06:39.485Z,72.5672
2023-03-26T10:07:40.152Z,72.4723
2023-03-26T10:08:40.605Z,72.4145
2023-03-26T10:10:41.516Z,72.3941
2023-03-26T10:11:42.159Z,72.3693
2023-03-26T10:12:41.760Z,72.2662
2023-03-26T10:14:42.391Z,71.9977
2023-03-26T10:16:42.692Z,71.5749
2023-03-26T10:17:43.341Z,71.3868
2023-03-26T10:19:44.514Z,71.0369
2023-03-26T10:20:44.988Z,70.8712
2023-03-26T10:21:45.869Z,70.7320
2023-03-26T10:22:46.206Z,70.5413
2023-03-26T10:23:46.678Z,70.3604
2023-03-26T10:24:46.965Z,70.2083
2023-03-26T10:25:47.404Z,70.0673
2023-03-26T10:27:09.208Z,69.9978
2023-03-26T10:27:48.674Z,69.9872
2023-03-26T10:28:49.179Z,70.0199
2023-03-26T10:29:49.763Z,70.1325
2023-03-26T10:30:50.388Z,70.1881
2023-03-26T10:31:51.163Z,70.2536
2023-03-26T10:33:51.653Z,70.5131
2023-03-26T10:34:52.782Z,70.6390
2023-03-26T10:35:53.414Z,70.7226
2023-03-26T10:36:54.114Z,70.7025
2023-03-26T10:37:54.184Z,70.5880
2023-03-26T10:38:54.725Z,70.5574
2023-03-26T10:39:55.636Z,70.5974
2023-03-26T10:40:56.287Z,70.6682
2023-03-26T10:41:56.052Z,70.7016
2023-03-26T10:42:56.343Z,70.6912
2023-03-26T10:44:07.525Z,70.7394
2023-03-26T10:44:57.075Z,70.8501
2023-03-26T10:45:57.777Z,70.9237
2023-03-26T10:46:58.342Z,70.9800
2023-03-26T10:47:59.047Z,71.0361
2023-03-26T10:48:59.469Z,71.1297
2023-03-26T10:50:00.409Z,71.2008
2023-03-26T10:51:01.666Z,71.2330
2023-03-26T10:52:02.333Z,71.1520
2023-03-26T10:53:03.202Z,71.0345
2023-03-26T10:54:04.333Z,70.9634
2023-03-26T10:55:05.376Z,70.8842
2023-03-26T10:56:06.053Z,70.8039
2023-03-26T10:57:07.123Z,70.6972
2023-03-26T10:58:08.005Z,70.5476
2023-03-26T10:59:08.409Z,70.4269
2023-03-26T11:00:09.448Z,70.2362
2023-03-26T11:01:09.957Z,69.9685
2023-03-26T11:02:11.083Z,69.7243
2023-03-26T11:06:13.490Z,69.0725
2023-03-26T11:07:14.507Z,68.9543
2023-03-26T11:08:14.869Z,68.8683
2023-03-26T11:09:15.324Z,68.8367
2023-03-26T11:10:15.808Z,68.7550
2023-03-26T11:11:16.379Z,68.7221
2023-03-26T11:12:26.738Z,68.6534
2023-03-26T11:13:18.337Z,68.5438
2023-03-26T11:14:33.784Z,68.4860
2023-03-26T11:15:22.372Z,68.5003
2023-03-26T11:16:23.170Z,68.4529
2023-03-26T11:17:40.627Z,68.3122
2023-03-26T11:18:24.423Z,68.1052
2023-03-26T11:19:24.972Z,67.8784
2023-03-26T11:22:26.834Z,67.0201
2023-03-26T11:23:27.758Z,66.7328
2023-03-26T11:24:28.732Z,66.4882
2023-03-26T11:25:29.165Z,66.3247
2023-03-26T11:26:29.644Z,66.0892
2023-03-26T11:27:29.698Z,65.8659
2023-03-26T11:28:30.176Z,65.6101
2023-03-26T11:29:33.636Z,65.3880
2023-03-26T11:31:32.359Z,65.4067
2023-03-26T11:32:33.124Z,65.4964
2023-03-26T11:33:33.561Z,65.5879
2023-03-26T11:34:34.754Z,65.6493
2023-03-26T11:35:41.756Z,65.6754
2023-03-26T11:37:41.017Z,65.7115
2023-03-26T11:38:41.573Z,65.7435
2023-03-26T11:39:41.979Z,65.7417
2023-03-26T11:40:42.652Z,65.5895
2023-03-26T11:41:43.075Z,65.2276
2023-03-26T11:42:43.795Z,64.8803
2023-03-26T11:43:44.197Z,64.7182
2023-03-26T11:44:44.814Z,64.6625
2023-03-26T11:45:45.306Z,64.6194
2023-03-26T11:46:45.738Z,64.5690
2023-03-26T11:47:46.657Z,64.5012
2023-03-26T11:48:47.143Z,64.4242
2023-03-26T11:49:47.575Z,64.3383
2023-03-26T11:50:48.009Z,64.2016
2023-03-26T11:51:48.896Z,64.0849
2023-03-26T11:53:49.418Z,63.8948
2023-03-26T11:54:49.987Z,63.7554
2023-03-26T11:55:50.256Z,63.5855
2023-03-26T11:57:06.021Z,63.4178
2023-03-26T11:57:54.342Z,63.3197
2023-03-26T11:58:54.847Z,63.1597
2023-03-26T11:59:59.968Z,62.8470
2023-03-26T12:01:00.766Z,62.6077
2023-03-26T12:02:01.320Z,62.3471
2023-03-26T12:03:01.555Z,62.2332
2023-03-26T12:04:02.036Z,62.1829
2023-03-26T12:05:03.397Z,62.2534
2023-03-26T12:06:04.354Z,62.2961
2023-03-26T12:07:04.686Z,62.3703
2023-03-26T12:08:05.415Z,62.4452
2023-03-26T12:09:05.778Z,62.4571
2023-03-26T12:10:18.280Z,62.1030
2023-03-26T12:11:11.865Z,61.5973
2023-03-26T12:12:13.045Z,61.6313
2023-03-26T12:13:13.640Z,61.8393
2023-03-26T12:14:14.005Z,62.0606
2023-03-26T12:15:14.543Z,62.2901
2023-03-26T12:16:14.958Z,62.4908
2023-03-26T12:17:15.730Z,62.5937
2023-03-26T12:18:16.863Z,62.8824
2023-03-26T12:19:17.330Z,63.0263
2023-03-26T12:20:17.902Z,63.1162
2023-03-26T12:21:18.521Z,63.2089
2023-03-26T12:22:19.233Z,63.2277
2023-03-26T12:23:19.627Z,63.2191
2023-03-26T12:24:20.251Z,63.3731
2023-03-26T12:25:20.645Z,63.5084
2023-03-26T12:26:21.247Z,63.4859
2023-03-26T12:27:21.632Z,63.3652
2023-03-26T12:28:22.143Z,63.0969
2023-03-26T12:29:22.732Z,62.9596
2023-03-26T12:30:23.401Z,63.0164
2023-03-26T12:31:23.923Z,63.1073
2023-03-26T12:32:32.439Z,63.2139
2023-03-26T12:33:25.349Z,63.3713
2023-03-26T12:34:25.466Z,63.1871
2023-03-26T12:36:26.831Z,64.9186
2023-03-26T12:37:27.387Z,65.7689
2023-03-26T12:38:27.904Z,66.4657
2023-03-26T12:40:30.702Z,67.2178
2023-03-26T12:44:44.672Z,67.2807
2023-03-26T12:44:50.756Z,67.4975
2023-03-26T12:44:52.690Z,67.4205
2023-03-26T12:45:00.519Z,67.6821
2023-03-26T12:47:55.405Z,67.7187
2023-03-26T12:48:00.516Z,67.8196
2023-03-26T12:48:06.507Z,67.8094
2023-03-26T12:49:07.267Z,67.6868
2023-03-26T12:50:08.560Z,67.4003
2023-03-26T12:51:08.940Z,66.8967
2023-03-26T12:52:09.543Z,66.3228
2023-03-26T12:53:10.002Z,66.1299
2023-03-26T12:54:10.270Z,66.0689
2023-03-26T12:55:13.997Z,65.9834
2023-03-26T12:57:14.476Z,65.7143
2023-03-26T12:58:15.966Z,65.9193
2023-03-26T12:59:16.363Z,65.8216
2023-03-26T13:00:17.135Z,65.2360
2023-03-26T13:01:17.819Z,64.3991
2023-03-26T13:02:18.876Z,63.6678
2023-03-26T13:03:19.405Z,62.6597
2023-03-26T13:04:19.568Z,61.5544
2023-03-26T13:06:19.877Z,60.1326
2023-03-26T13:07:20.170Z,59.8477
2023-03-26T13:08:20.723Z,59.4245